createdAt,value
2023-01-31T00:02:07.392Z,99482.66
2023-01-31T00:04:40.677Z,99477.66
2023-01-31T00:07:12.553Z,99487.03
2023-01-31T00:09:45.263Z,99480.56
2023-01-31T00:12:17.589Z,99472.84
2023-01-31T00:14:49.917Z,99470.34
2023-01-31T00:17:22.663Z,99461.63
2023-01-31T00:19:54.609Z,99467.94
2023-01-31T00:22:27.480Z,99463.06
2023-01-31T00:24:59.426Z,99465.69
2023-01-31T00:30:26.240Z,99464.28
2023-01-31T00:32:58.974Z,99462.78
2023-01-31T00:35:30.880Z,99462.31
2023-01-31T00:38:03.644Z,99461.50
2023-01-31T00:40:36.473Z,99458.75
2023-01-31T00:43:09.119Z,99458.78
2023-01-31T00:45:41.822Z,99463.13
2023-01-31T00:48:14.148Z,99464.63
2023-01-31T00:50:46.817Z,99471.25
2023-01-31T00:53:24.116Z,99467.66
2023-01-31T00:56:07.338Z,99458.41
2023-01-31T00:58:41.288Z,99458.22
2023-01-31T01:01:16.961Z,99452.38
2023-01-31T01:03:51.460Z,99454.69
2023-01-31T01:06:24.044Z,99463.72
2023-01-31T01:09:00.126Z,99457.84
2023-01-31T01:11:35.692Z,99457.03
2023-01-31T01:14:09.024Z,99456.22
2023-01-31T01:16:42.656Z,99454.72
2023-01-31T01:19:19.876Z,99455.94
2023-01-31T01:21:55.537Z,99456.06
2023-01-31T01:24:29.431Z,99450.59
2023-01-31T01:27:01.464Z,99459.75
2023-01-31T01:29:34.459Z,99458.63
2023-01-31T01:32:07.381Z,99475.06
2023-01-31T01:34:40.333Z,99476.72
2023-01-31T01:37:19.938Z,99462.25
2023-01-31T01:39:53.488Z,99460.34
2023-01-31T01:42:27.005Z,99460.50
2023-01-31T01:45:01.817Z,99450.13
2023-01-31T01:47:46.826Z,99453.63
2023-01-31T01:50:36.865Z,99450.88
2023-01-31T01:53:20.127Z,99446.78
2023-01-31T01:56:01.730Z,99446.41
2023-01-31T01:59:01.661Z,99444.22
2023-01-31T02:01:37.796Z,99447.09
2023-01-31T02:04:21.669Z,99456.38
2023-01-31T02:06:55.321Z,99469.75
2023-01-31T02:09:45.575Z,99468.13
2023-01-31T02:12:18.730Z,99465.00
2023-01-31T02:14:50.890Z,99460.09
2023-01-31T02:17:23.601Z,99454.75
2023-01-31T02:20:09.694Z,99450.38
2023-01-31T02:22:58.257Z,99453.53
2023-01-31T02:26:25.740Z,99452.03
2023-01-31T02:29:59.121Z,99449.97
2023-01-31T02:32:36.746Z,99445.31
2023-01-31T02:35:45.561Z,99446.00
2023-01-31T02:38:32.747Z,99456.13
2023-01-31T02:41:29.841Z,99448.75
2023-01-31T02:45:00.956Z,99449.13
2023-01-31T02:47:42.242Z,99448.75
2023-01-31T02:50:40.999Z,99459.25
2023-01-31T02:53:22.681Z,99456.63
2023-01-31T02:56:18.523Z,99467.28
2023-01-31T02:59:33.858Z,99470.81
2023-01-31T03:02:06.576Z,99470.00
2023-01-31T03:04:41.474Z,99469.19
2023-01-31T03:07:22.283Z,99475.50
2023-01-31T03:10:10.564Z,99463.47
2023-01-31T03:12:52.435Z,99469.47
2023-01-31T03:16:15.506Z,99474.13
2023-01-31T03:19:14.306Z,99474.13
2023-01-31T03:22:07.819Z,99490.09
2023-01-31T03:24:45.161Z,99479.75
2023-01-31T03:27:17.718Z,99482.47
2023-01-31T03:29:58.880Z,99477.56
2023-01-31T03:32:40.271Z,99479.84
2023-01-31T03:35:13.182Z,99478.66
2023-01-31T03:38:01.691Z,99484.91
2023-01-31T03:40:48.893Z,99489.53
2023-01-31T03:44:00.209Z,99488.84
2023-01-31T03:46:40.830Z,99491.44
2023-01-31T03:49:16.571Z,99479.84
2023-01-31T03:52:05.426Z,99481.34
2023-01-31T03:54:48.840Z,99469.06
2023-01-31T03:57:32.556Z,99469.91
2023-01-31T04:00:13.311Z,99465.53
2023-01-31T04:03:05.090Z,99461.44
2023-01-31T04:05:59.395Z,99456.81
2023-01-31T04:08:33.536Z,99455.88
2023-01-31T04:11:14.860Z,99447.81
2023-01-31T04:13:46.823Z,99442.13
2023-01-31T04:16:19.887Z,99448.78
2023-01-31T04:18:51.876Z,99452.31
2023-01-31T04:24:17.783Z,99467.72
2023-01-31T04:26:50.776Z,99475.22
2023-01-31T04:29:22.716Z,99472.91
2023-01-31T04:31:55.555Z,99481.91
2023-01-31T04:34:28.025Z,99490.78
2023-01-31T04:37:01.080Z,99493.78
2023-01-31T04:39:33.553Z,99492.97
2023-01-31T04:42:05.886Z,99500.75
2023-01-31T04:44:37.782Z,99497.31
2023-01-31T04:47:10.533Z,99496.78
2023-01-31T04:49:44.069Z,99497.19
2023-01-31T04:52:16.777Z,99505.63
2023-01-31T04:54:48.712Z,99507.53
2023-01-31T04:57:21.519Z,99501.91
2023-01-31T04:59:53.816Z,99499.75
2023-01-31T05:02:26.397Z,99496.91
2023-01-31T05:04:59.305Z,99493.06
2023-01-31T05:07:32.641Z,99499.78
2023-01-31T05:10:06.396Z,99497.69
2023-01-31T05:12:40.051Z,99498.38
2023-01-31T05:15:12.876Z,99496.50
2023-01-31T05:17:45.126Z,99491.47
2023-01-31T05:20:17.929Z,99494.72
2023-01-31T05:22:50.689Z,99493.25
2023-01-31T05:25:23.861Z,99488.19
2023-01-31T05:27:55.881Z,99490.34
2023-01-31T05:30:50.154Z,99487.09
2023-01-31T05:33:22.490Z,99479.56
2023-01-31T05:35:55.252Z,99480.63
2023-01-31T05:38:50.619Z,99477.88
2023-01-31T05:41:23.396Z,99479.66
2023-01-31T05:43:55.332Z,99478.69
2023-01-31T05:46:28.113Z,99480.75
2023-01-31T05:49:01.040Z,99469.16
2023-01-31T05:51:33.880Z,99469.44
2023-01-31T05:54:06.551Z,99472.25
2023-01-31T05:56:39.915Z,99471.88
2023-01-31T05:59:11.938Z,99477.88
2023-01-31T06:01:44.779Z,99475.31
2023-01-31T06:04:17.597Z,99486.38
2023-01-31T06:06:49.585Z,99484.84
2023-01-31T06:09:23.582Z,99488.56
2023-01-31T06:11:55.918Z,99497.28
2023-01-31T06:14:28.589Z,99500.56
2023-01-31T06:17:00.634Z,99501.91
2023-01-31T06:19:33.412Z,99502.22
2023-01-31T06:22:06.213Z,99512.94
2023-01-31T06:24:39.046Z,99518.66
2023-01-31T06:27:11.018Z,99521.75
2023-01-31T06:29:43.765Z,99527.53
2023-01-31T06:32:16.537Z,99528.63
2023-01-31T06:34:49.090Z,99536.53
2023-01-31T06:37:22.086Z,99542.94
2023-01-31T06:39:54.305Z,99537.25
2023-01-31T06:42:27.231Z,99538.59
2023-01-31T06:44:59.347Z,99533.81
2023-01-31T06:47:32.645Z,99533.66
2023-01-31T06:50:05.447Z,99528.41
2023-01-31T06:52:37.456Z,99528.13
2023-01-31T06:55:10.671Z,99535.91
2023-01-31T06:57:49.420Z,99538.47
2023-01-31T07:00:25.112Z,99533.84
2023-01-31T07:02:58.745Z,99533.16
2023-01-31T07:05:31.593Z,99529.06
2023-01-31T07:08:04.105Z,99524.84
2023-01-31T07:10:36.538Z,99522.00
2023-01-31T07:13:09.327Z,99527.69
2023-01-31T07:15:42.208Z,99527.06
2023-01-31T07:18:15.169Z,99529.63
2023-01-31T07:20:47.590Z,99525.50
2023-01-31T07:23:19.967Z,99515.25
2023-01-31T07:25:56.023Z,99520.44
2023-01-31T07:28:30.031Z,99518.94
2023-01-31T07:31:13.064Z,99516.94
2023-01-31T07:33:45.932Z,99519.94
2023-01-31T07:36:19.930Z,99530.69
2023-01-31T07:38:58.070Z,99524.88
2023-01-31T07:41:30.154Z,99527.47
2023-01-31T07:44:02.939Z,99535.84
2023-01-31T07:46:35.504Z,99541.88
2023-01-31T07:49:11.846Z,99549.63
2023-01-31T07:51:43.797Z,99555.66
2023-01-31T07:54:16.463Z,99551.72
2023-01-31T07:56:48.697Z,99552.44
2023-01-31T07:59:21.124Z,99552.44
2023-01-31T08:02:11.641Z,99540.84
2023-01-31T08:04:44.461Z,99539.19
2023-01-31T08:07:16.772Z,99537.44
2023-01-31T08:09:51.731Z,99541.81
2023-01-31T08:12:23.660Z,99554.91
2023-01-31T08:14:56.480Z,99553.69
2023-01-31T08:17:29.470Z,99557.75
2023-01-31T08:20:02.795Z,99563.09
2023-01-31T08:22:37.910Z,99563.34
2023-01-31T08:25:11.113Z,99563.91
2023-01-31T08:27:44.218Z,99565.59
2023-01-31T08:30:16.348Z,99557.94
2023-01-31T08:32:49.202Z,99553.59
2023-01-31T08:35:22.030Z,99549.25
2023-01-31T08:38:03.793Z,99551.03
2023-01-31T08:40:43.538Z,99542.00
2023-01-31T08:43:16.457Z,99537.34
2023-01-31T08:45:48.400Z,99536.84
2023-01-31T08:48:23.523Z,99532.13
2023-01-31T08:50:57.408Z,99520.63
2023-01-31T08:53:29.697Z,99526.63
2023-01-31T08:56:07.708Z,99532.19
2023-01-31T08:58:42.143Z,99528.81
2023-01-31T09:01:18.717Z,99543.59
2023-01-31T09:03:56.806Z,99535.09
2023-01-31T09:06:29.182Z,99527.88
2023-01-31T09:09:02.505Z,99522.66
2023-01-31T09:11:36.016Z,99541.16
2023-01-31T09:14:08.849Z,99547.16
2023-01-31T09:16:43.557Z,99547.47
2023-01-31T09:19:15.639Z,99542.75
2023-01-31T09:21:48.383Z,99543.44
2023-01-31T09:24:20.746Z,99551.94
2023-01-31T09:26:54.343Z,99540.44
2023-01-31T09:29:28.571Z,99526.88
2023-01-31T09:32:01.041Z,99538.25
2023-01-31T09:34:34.944Z,99531.31
2023-01-31T09:37:06.953Z,99525.25
2023-01-31T09:39:40.113Z,99530.69
2023-01-31T09:42:42.760Z,99521.84
2023-01-31T09:45:43.943Z,99514.22
2023-01-31T09:48:24.095Z,99515.59
2023-01-31T09:50:59.147Z,99513.25
2023-01-31T09:53:36.400Z,99503.38
2023-01-31T09:56:14.874Z,99518.91
2023-01-31T09:59:05.371Z,99511.53
2023-01-31T10:02:17.612Z,99523.63
2023-01-31T10:05:30.698Z,99521.94
2023-01-31T10:08:31.792Z,99516.34
2023-01-31T10:11:13.160Z,99518.66
2023-01-31T10:13:58.179Z,99526.69
2023-01-31T10:16:38.861Z,99527.81
2023-01-31T10:19:39.350Z,99532.00
2023-01-31T10:22:21.368Z,99531.19
2023-01-31T10:25:03.947Z,99537.50
2023-01-31T10:28:13.467Z,99543.50
2023-01-31T10:31:06.343Z,99539.47
2023-01-31T10:33:52.015Z,99532.81
2023-01-31T10:36:28.100Z,99532.75
2023-01-31T10:39:26.425Z,99522.25
2023-01-31T10:42:04.176Z,99521.34
2023-01-31T10:44:54.900Z,99521.16
2023-01-31T10:47:49.818Z,99512.94
2023-01-31T10:54:15.918Z,99492.59
2023-01-31T10:57:06.850Z,99491.16
2023-01-31T10:59:46.434Z,99489.69
2023-01-31T11:02:23.223Z,99493.75
2023-01-31T11:04:59.694Z,99505.41
2023-01-31T11:07:32.239Z,99513.78
2023-01-31T11:10:27.943Z,99519.16
2023-01-31T11:13:04.871Z,99524.41
2023-01-31T11:15:43.313Z,99519.16
2023-01-31T11:18:29.732Z,99526.56
2023-01-31T11:21:04.339Z,99515.28
2023-01-31T11:23:37.664Z,99514.53
2023-01-31T11:26:09.917Z,99508.19
2023-01-31T11:28:42.833Z,99505.22
2023-01-31T11:31:28.000Z,99516.44
2023-01-31T11:34:05.721Z,99514.16
2023-01-31T11:36:46.360Z,99526.88
2023-01-31T11:39:32.817Z,99509.41
2023-01-31T11:42:15.286Z,99511.78
2023-01-31T11:45:18.391Z,99520.06
2023-01-31T11:47:54.920Z,99513.31
2023-01-31T11:50:52.517Z,99512.09
2023-01-31T11:53:43.254Z,99508.06
2023-01-31T11:56:23.693Z,99509.56
2023-01-31T11:59:11.117Z,99501.56
2023-01-31T12:01:52.041Z,99505.47
2023-01-31T12:04:31.255Z,99505.00
2023-01-31T12:07:26.971Z,99487.63
2023-01-31T12:09:58.934Z,99475.44
2023-01-31T12:12:36.550Z,99455.78
2023-01-31T12:15:17.683Z,99443.34
2023-01-31T12:17:50.879Z,99443.06
2023-01-31T12:20:49.989Z,99442.06
2023-01-31T12:23:57.858Z,99447.06
2023-01-31T12:27:00.397Z,99440.41
2023-01-31T12:29:50.176Z,99430.56
2023-01-31T12:32:51.470Z,99422.09
2023-01-31T12:35:51.359Z,99433.72
2023-01-31T12:39:02.299Z,99421.19
2023-01-31T12:41:46.022Z,99416.31
2023-01-31T12:44:37.819Z,99419.13
2023-01-31T12:47:16.789Z,99420.44
2023-01-31T12:50:10.626Z,99434.59
2023-01-31T12:53:15.520Z,99450.94
2023-01-31T12:56:28.164Z,99436.22
2023-01-31T13:00:04.926Z,99420.75
2023-01-31T13:02:59.059Z,99416.84
2023-01-31T13:05:43.862Z,99417.16
2023-01-31T13:08:23.379Z,99413.19
2023-01-31T13:11:27.922Z,99375.75
2023-01-31T13:14:04.898Z,99384.56
2023-01-31T13:16:47.280Z,99383.41
2023-01-31T13:19:52.745Z,99393.81
2023-01-31T13:22:42.852Z,99395.66
2023-01-31T13:25:17.447Z,99411.59
2023-01-31T13:28:32.814Z,99402.19
2023-01-31T13:31:38.748Z,99401.78
2023-01-31T13:34:23.841Z,99385.25
2023-01-31T13:37:01.487Z,99397.44
2023-01-31T13:39:41.116Z,99403.72
2023-01-31T13:42:16.467Z,99403.00
2023-01-31T13:44:51.579Z,99395.59
2023-01-31T13:47:30.153Z,99387.75
2023-01-31T13:50:20.577Z,99391.47
2023-01-31T13:52:57.592Z,99392.47
2023-01-31T13:55:40.494Z,99386.53
2023-01-31T13:58:22.774Z,99386.56
2023-01-31T14:01:04.997Z,99372.53
2023-01-31T14:04:11.092Z,99355.78
2023-01-31T14:07:07.383Z,99350.03
2023-01-31T14:09:46.057Z,99342.94
2023-01-31T14:12:18.393Z,99344.53
2023-01-31T14:14:56.589Z,99340.72
2023-01-31T14:17:28.411Z,99341.44
2023-01-31T14:20:27.060Z,99341.88
2023-01-31T14:23:32.097Z,99348.06
2023-01-31T14:26:38.285Z,99346.94
2023-01-31T14:29:26.827Z,99343.00
2023-01-31T14:31:59.106Z,99336.84
2023-01-31T14:34:33.179Z,99338.03
2023-01-31T14:37:18.282Z,99348.75
2023-01-31T14:40:47.355Z,99319.19
2023-01-31T14:43:40.845Z,99329.75
2023-01-31T14:46:21.466Z,99328.06
2023-01-31T14:49:26.648Z,99320.00
2023-01-31T14:52:56.805Z,99336.66
2023-01-31T14:55:53.593Z,99334.53
2023-01-31T14:58:30.017Z,99331.91
2023-01-31T15:01:54.299Z,99329.22
2023-01-31T15:04:28.130Z,99335.72
2023-01-31T15:07:01.000Z,99333.22
2023-01-31T15:09:39.709Z,99330.53
2023-01-31T15:12:52.225Z,99331.22
2023-01-31T15:15:41.125Z,99344.28
2023-01-31T15:18:35.617Z,99332.59
2023-01-31T15:21:09.256Z,99314.13
2023-01-31T15:23:42.799Z,99310.59
2023-01-31T15:26:18.241Z,99318.69
2023-01-31T15:28:52.217Z,99338.28
2023-01-31T15:31:47.695Z,99334.63
2023-01-31T15:34:31.496Z,99345.56
2023-01-31T15:37:23.790Z,99334.63
2023-01-31T15:40:18.563Z,99307.94
2023-01-31T15:42:50.809Z,99323.19
2023-01-31T15:45:29.905Z,99347.66
2023-01-31T15:48:12.115Z,99337.16
2023-01-31T15:50:56.639Z,99321.38
2023-01-31T15:53:33.012Z,99323.72
2023-01-31T15:56:15.503Z,99307.53
2023-01-31T15:58:52.752Z,99312.78
2023-01-31T16:01:30.728Z,99317.16
2023-01-31T16:04:02.849Z,99296.47
2023-01-31T16:06:38.828Z,99298.25
2023-01-31T16:09:33.041Z,99307.38
2023-01-31T16:12:05.347Z,99302.06
2023-01-31T16:14:38.021Z,99299.44
2023-01-31T16:17:10.917Z,99301.41
2023-01-31T16:19:49.845Z,99326.13
2023-01-31T16:22:28.314Z,99338.00
2023-01-31T16:25:04.188Z,99342.72
2023-01-31T16:27:45.418Z,99356.66
2023-01-31T16:30:21.248Z,99359.84
2023-01-31T16:32:54.976Z,99361.72
2023-01-31T16:35:29.624Z,99379.00
2023-01-31T16:38:20.855Z,99365.94
2023-01-31T16:40:59.608Z,99372.28
2023-01-31T16:43:34.540Z,99377.56
2023-01-31T16:46:36.743Z,99389.47
2023-01-31T16:49:28.350Z,99377.00
2023-01-31T16:52:28.849Z,99393.97
2023-01-31T16:55:02.462Z,99397.19
2023-01-31T16:57:39.001Z,99408.53
2023-01-31T17:00:23.947Z,99394.03
2023-01-31T17:03:00.904Z,99401.81
2023-01-31T17:05:36.749Z,99415.50
2023-01-31T17:08:19.850Z,99427.38
2023-01-31T17:10:52.555Z,99432.69
2023-01-31T17:13:27.025Z,99430.66
2023-01-31T17:15:58.957Z,99433.94
2023-01-31T17:18:33.608Z,99432.09
2023-01-31T17:21:06.642Z,99416.81
2023-01-31T17:23:40.196Z,99425.88
2023-01-31T17:26:22.688Z,99427.63
2023-01-31T17:29:01.886Z,99420.38
2023-01-31T17:31:35.218Z,99428.88
2023-01-31T17:34:13.850Z,99427.69
2023-01-31T17:36:46.807Z,99413.69
2023-01-31T17:39:19.192Z,99419.75
2023-01-31T17:41:51.584Z,99428.41
2023-01-31T17:44:24.364Z,99418.41
2023-01-31T17:46:57.065Z,99395.38
2023-01-31T17:49:29.159Z,99396.31
2023-01-31T17:52:02.844Z,99386.94
2023-01-31T17:54:34.853Z,99385.00
2023-01-31T17:57:07.616Z,99394.13
2023-01-31T17:59:39.562Z,99406.50
2023-01-31T18:02:12.669Z,99413.03
2023-01-31T18:04:44.682Z,99421.09
2023-01-31T18:07:17.489Z,99424.34
2023-01-31T18:09:50.850Z,99423.06
2023-01-31T18:12:23.254Z,99430.41
2023-01-31T18:14:55.652Z,99420.38
2023-01-31T18:17:28.636Z,99419.28
2023-01-31T18:20:00.592Z,99413.88
2023-01-31T18:22:33.421Z,99423.66
2023-01-31T18:25:06.332Z,99432.19
2023-01-31T18:27:39.249Z,99430.16
2023-01-31T18:30:12.209Z,99429.38
2023-01-31T18:32:45.128Z,99430.91
2023-01-31T18:35:17.251Z,99425.19
2023-01-31T18:37:50.655Z,99427.03
2023-01-31T18:40:23.082Z,99425.59
2023-01-31T18:42:55.008Z,99416.41
2023-01-31T18:45:28.917Z,99417.94
2023-01-31T18:48:01.626Z,99411.44
2023-01-31T18:50:34.844Z,99405.50
2023-01-31T18:53:08.004Z,99402.81
2023-01-31T18:55:39.996Z,99403.59
2023-01-31T18:58:13.055Z,99400.97
2023-01-31T19:00:45.560Z,99401.63
2023-01-31T19:03:18.342Z,99409.56
2023-01-31T19:05:50.267Z,99411.59
2023-01-31T19:08:23.004Z,99422.56
2023-01-31T19:10:55.186Z,99414.88
2023-01-31T19:13:27.985Z,99421.91
2023-01-31T19:16:07.334Z,99423.81
2023-01-31T19:18:41.292Z,99421.91
2023-01-31T19:21:23.747Z,99420.22
2023-01-31T19:23:59.428Z,99417.41
2023-01-31T19:26:35.182Z,99410.31
2023-01-31T19:29:09.695Z,99399.69
2023-01-31T19:31:43.169Z,99395.72
2023-01-31T19:34:15.128Z,99391.06
2023-01-31T19:36:49.937Z,99387.19
2023-01-31T19:39:23.009Z,99384.31
2023-01-31T19:41:56.051Z,99389.50
2023-01-31T19:44:29.199Z,99386.28
2023-01-31T19:47:02.001Z,99390.16
2023-01-31T19:49:33.970Z,99389.50
2023-01-31T19:52:06.755Z,99381.13
2023-01-31T19:54:41.444Z,99377.16
2023-01-31T19:57:13.527Z,99380.63
2023-01-31T19:59:46.074Z,99369.22
2023-01-31T20:02:18.527Z,99378.44
2023-01-31T20:04:51.041Z,99394.13
2023-01-31T20:07:22.967Z,99389.50
2023-01-31T20:09:56.234Z,99390.31
2023-01-31T20:12:29.289Z,99392.34
2023-01-31T20:15:04.653Z,99392.25
2023-01-31T20:17:38.961Z,99395.66
2023-01-31T20:20:12.428Z,99388.28
2023-01-31T20:22:47.039Z,99392.34
2023-01-31T20:25:22.926Z,99387.88
2023-01-31T20:27:57.336Z,99391.78
2023-01-31T20:30:32.870Z,99385.19
2023-01-31T20:33:05.312Z,99383.31
2023-01-31T20:35:39.739Z,99362.91
2023-01-31T20:38:13.533Z,99373.28
2023-01-31T20:40:53.554Z,99376.66
2023-01-31T20:43:27.638Z,99374.13
2023-01-31T20:46:09.986Z,99375.56
2023-01-31T20:48:43.541Z,99365.00
2023-01-31T20:51:16.004Z,99362.47
2023-01-31T20:53:51.832Z,99365.78
2023-01-31T20:56:24.575Z,99370.94
2023-01-31T20:58:56.645Z,99364.44
2023-01-31T21:01:29.925Z,99360.59
2023-01-31T21:04:02.774Z,99365.78
2023-01-31T21:06:34.758Z,99361.13
2023-01-31T21:09:07.674Z,99355.22
2023-01-31T21:11:40.400Z,99366.28
2023-01-31T21:14:12.705Z,99362.31
2023-01-31T21:16:45.639Z,99366.28
2023-01-31T21:19:18.359Z,99365.53
2023-01-31T21:21:50.400Z,99360.13
2023-01-31T21:24:23.357Z,99354.81
2023-01-31T21:26:55.695Z,99373.03
2023-01-31T21:29:28.013Z,99371.78
2023-01-31T21:32:00.784Z,99375.13
2023-01-31T21:34:32.736Z,99376.31
2023-01-31T21:37:05.569Z,99370.44
2023-01-31T21:39:37.525Z,99363.19
2023-01-31T21:42:16.815Z,99361.91
2023-01-31T21:44:48.801Z,99367.63
2023-01-31T21:47:21.593Z,99351.44
2023-01-31T21:49:54.143Z,99351.38
2023-01-31T21:52:26.139Z,99356.09
2023-01-31T21:55:00.216Z,99361.91
2023-01-31T21:57:32.117Z,99346.44
2023-01-31T22:00:05.661Z,99347.03
2023-01-31T22:02:38.064Z,99347.13
2023-01-31T22:05:09.996Z,99354.88
2023-01-31T22:07:42.918Z,99360.88
2023-01-31T22:10:14.927Z,99348.47
2023-01-31T22:12:48.455Z,99336.22
2023-01-31T22:15:20.419Z,99342.81
2023-01-31T22:17:53.526Z,99341.47
2023-01-31T22:20:25.679Z,99332.25
2023-01-31T22:22:58.409Z,99342.81
2023-01-31T22:25:31.091Z,99331.69
2023-01-31T22:28:03.956Z,99318.69
2023-01-31T22:30:35.874Z,99315.47
2023-01-31T22:33:09.095Z,99322.63
2023-01-31T22:35:42.103Z,99314.28
2023-01-31T22:38:14.033Z,99311.59
2023-01-31T22:40:47.630Z,99295.16
2023-01-31T22:43:23.069Z,99286.59
2023-01-31T22:45:58.723Z,99288.63
2023-01-31T22:48:31.208Z,99282.91
2023-01-31T22:51:07.801Z,99296.56
2023-01-31T22:53:40.509Z,99299.31
2023-01-31T22:56:17.511Z,99295.44
2023-01-31T22:58:55.610Z,99292.22
2023-01-31T23:01:33.108Z,99298.66
2023-01-31T23:04:09.117Z,99294.78
2023-01-31T23:06:41.149Z,99294.84
2023-01-31T23:09:13.883Z,99302.09
2023-01-31T23:11:45.831Z,99300.16
2023-01-31T23:14:18.578Z,99315.88
2023-01-31T23:17:13.783Z,99310.53
2023-01-31T23:19:45.675Z,99307.41
2023-01-31T23:22:18.815Z,99308.50
2023-01-31T23:24:51.157Z,99317.63
2023-01-31T23:27:23.919Z,99311.00
2023-01-31T23:29:56.245Z,99304.53
2023-01-31T23:32:28.176Z,99311.72
2023-01-31T23:35:00.951Z,99297.31
2023-01-31T23:37:33.938Z,99300.53
2023-01-31T23:40:08.409Z,99294.69
2023-01-31T23:42:40.710Z,99290.19
2023-01-31T23:45:13.456Z,99296.69
2023-01-31T23:47:45.847Z,99298.66
2023-01-31T23:50:18.441Z,99298.66
2023-01-31T23:52:50.908Z,99297.25
2023-01-31T23:55:23.352Z,99299.91
2023-01-31T23:57:55.442Z,99285.50
